createdAt,value
2018-05-17T00:00:18.358Z,23.17
2018-05-17T00:02:44.714Z,24.05
2018-05-17T00:05:11.040Z,24.05
2018-05-17T00:07:37.827Z,24.65
2018-05-17T00:10:04.188Z,24.37
2018-05-17T00:12:30.490Z,26.00
2018-05-17T00:14:56.803Z,22.73
2018-05-17T00:17:23.383Z,25.27
2018-05-17T00:19:50.877Z,26.37
2018-05-17T00:22:17.207Z,25.92
2018-05-17T00:24:47.558Z,23.23
2018-05-17T00:27:18.474Z,22.08
2018-05-17T00:29:45.603Z,22.33
2018-05-17T00:32:11.966Z,22.75
2018-05-17T00:34:39.015Z,21.37
2018-05-17T00:37:06.162Z,22.08
2018-05-17T00:39:33.230Z,20.83
2018-05-17T00:41:59.567Z,20.70
2018-05-17T00:44:26.029Z,23.17
2018-05-17T00:49:35.562Z,26.65
2018-05-17T00:52:01.959Z,27.62
2018-05-17T00:54:29.915Z,31.35
2018-05-17T00:56:56.306Z,31.45
2018-05-17T00:59:27.613Z,31.42
2018-05-17T01:01:54.394Z,32.00
2018-05-17T01:04:24.939Z,31.40
2018-05-17T01:06:52.488Z,30.50
2018-05-17T01:09:21.942Z,29.73
2018-05-17T01:11:48.987Z,26.50
2018-05-17T01:14:19.904Z,28.58
2018-05-17T01:16:48.627Z,25.00
2018-05-17T01:19:16.923Z,25.80
2018-05-17T01:21:45.208Z,20.80
2018-05-17T01:24:12.567Z,20.15
2018-05-17T01:26:39.703Z,18.65
2018-05-17T01:29:06.044Z,16.55
2018-05-17T01:31:32.455Z,16.75
2018-05-17T01:34:03.461Z,16.12
2018-05-17T01:36:30.088Z,15.00
2018-05-17T01:38:57.590Z,14.38
2018-05-17T01:41:29.011Z,16.70
2018-05-17T01:44:00.400Z,14.50
2018-05-17T01:46:27.662Z,15.75
2018-05-17T01:48:54.861Z,15.20
2018-05-17T01:51:21.172Z,14.52
2018-05-17T01:53:48.231Z,15.80
2018-05-17T01:56:14.526Z,15.55
2018-05-17T01:58:40.844Z,16.20
2018-05-17T02:01:07.162Z,16.27
2018-05-17T02:03:33.497Z,17.20
2018-05-17T02:05:59.808Z,16.08
2018-05-17T02:08:26.225Z,16.42
2018-05-17T02:10:52.514Z,19.10
2018-05-17T02:13:19.575Z,17.27
2018-05-17T02:15:46.707Z,18.10
2018-05-17T02:18:13.763Z,17.20
2018-05-17T02:20:40.850Z,16.08
2018-05-17T02:23:07.187Z,17.65
2018-05-17T02:25:33.513Z,17.10
2018-05-17T02:27:59.796Z,16.23
2018-05-17T02:30:26.884Z,16.35
2018-05-17T02:32:53.462Z,14.87
2018-05-17T02:35:19.774Z,14.73
2018-05-17T02:37:46.067Z,15.02
2018-05-17T02:40:12.372Z,16.30
2018-05-17T02:42:38.705Z,16.12
2018-05-17T02:45:05.063Z,16.52
2018-05-17T02:47:31.381Z,17.33
2018-05-17T02:49:57.704Z,16.45
2018-05-17T02:52:24.041Z,17.65
2018-05-17T02:54:50.330Z,17.83
2018-05-17T02:57:16.747Z,16.70
2018-05-17T02:59:43.178Z,18.23
2018-05-17T03:02:09.674Z,19.92
2018-05-17T03:04:36.050Z,20.10
2018-05-17T03:07:02.475Z,19.70
2018-05-17T03:09:28.914Z,19.62
2018-05-17T03:11:55.415Z,19.70
2018-05-17T03:14:21.787Z,20.52
2018-05-17T03:16:48.202Z,20.50
2018-05-17T03:19:14.613Z,19.85
2018-05-17T03:21:40.999Z,20.77
2018-05-17T03:24:08.110Z,20.33
2018-05-17T03:26:34.407Z,21.35
2018-05-17T03:29:00.786Z,21.85
2018-05-17T03:31:27.950Z,21.90
2018-05-17T03:33:55.226Z,22.05
2018-05-17T03:36:21.556Z,23.75
2018-05-17T03:38:47.891Z,23.62
2018-05-17T03:41:14.211Z,23.70
2018-05-17T03:43:40.566Z,23.95
2018-05-17T03:46:06.895Z,24.70
2018-05-17T03:48:33.203Z,25.67
2018-05-17T03:50:59.631Z,24.70
2018-05-17T03:53:25.943Z,25.65
2018-05-17T03:55:53.029Z,28.38
2018-05-17T03:58:19.379Z,27.80
2018-05-17T04:01:04.304Z,29.20
2018-05-17T04:03:49.022Z,29.02
2018-05-17T04:06:33.529Z,28.05
2018-05-17T04:08:59.897Z,31.35
2018-05-17T04:11:26.246Z,32.10
2018-05-17T04:13:53.326Z,31.73
2018-05-17T04:16:20.349Z,32.20
2018-05-17T04:18:47.447Z,33.38
2018-05-17T04:21:13.879Z,32.72
2018-05-17T04:23:40.226Z,33.83
2018-05-17T04:26:06.594Z,33.35
2018-05-17T04:28:32.922Z,32.97
2018-05-17T04:31:00.482Z,32.50
2018-05-17T04:33:27.539Z,32.28
2018-05-17T04:35:53.877Z,33.85
2018-05-17T04:38:20.237Z,33.10
2018-05-17T04:40:46.574Z,34.83
2018-05-17T04:43:12.862Z,32.55
2018-05-17T04:45:39.186Z,34.17
2018-05-17T04:48:05.612Z,34.80
2018-05-17T04:50:31.941Z,35.97
2018-05-17T04:52:58.277Z,33.90
2018-05-17T04:55:24.679Z,33.72
2018-05-17T04:57:51.785Z,32.33
2018-05-17T05:00:18.152Z,32.78
2018-05-17T05:02:44.533Z,34.13
2018-05-17T05:05:10.963Z,32.30
2018-05-17T05:07:37.270Z,31.58
2018-05-17T05:10:04.378Z,30.05
2018-05-17T05:12:30.736Z,30.00
2018-05-17T05:14:57.810Z,29.75
2018-05-17T05:17:24.131Z,28.40
2018-05-17T05:19:50.545Z,28.38
2018-05-17T05:22:17.649Z,29.95
2018-05-17T05:24:44.062Z,27.25
2018-05-17T05:27:10.492Z,28.80
2018-05-17T05:29:36.813Z,27.17
2018-05-17T05:32:03.140Z,26.95
2018-05-17T05:34:29.534Z,25.35
2018-05-17T05:36:55.989Z,24.00
2018-05-17T05:39:22.956Z,24.90
2018-05-17T05:41:49.283Z,25.02
2018-05-17T05:44:15.607Z,24.50
2018-05-17T05:46:42.002Z,24.37
2018-05-17T05:49:08.763Z,23.92
2018-05-17T05:51:35.150Z,20.65
2018-05-17T05:54:01.552Z,22.92
2018-05-17T05:56:27.870Z,21.58
2018-05-17T05:58:54.350Z,21.02
2018-05-17T06:01:20.711Z,18.65
2018-05-17T06:03:47.857Z,18.15
2018-05-17T06:06:14.935Z,20.83
2018-05-17T06:08:41.274Z,18.00
2018-05-17T06:11:08.727Z,19.33
2018-05-17T06:13:35.034Z,16.80
2018-05-17T06:16:01.358Z,15.68
2018-05-17T06:18:27.703Z,16.30
2018-05-17T06:20:54.121Z,13.30
2018-05-17T06:23:20.425Z,14.80
2018-05-17T06:25:46.796Z,16.60
2018-05-17T06:28:13.254Z,13.98
2018-05-17T06:30:39.622Z,14.85
2018-05-17T06:33:06.112Z,13.80
2018-05-17T06:35:32.466Z,12.88
2018-05-17T06:37:58.772Z,13.52
2018-05-17T06:40:25.170Z,12.60
2018-05-17T06:42:51.530Z,13.23
2018-05-17T06:45:17.886Z,12.77
2018-05-17T06:47:44.188Z,14.18
2018-05-17T06:50:10.581Z,15.05
2018-05-17T06:52:36.919Z,12.82
2018-05-17T06:55:03.255Z,15.98
2018-05-17T06:57:29.581Z,13.38
2018-05-17T06:59:55.917Z,11.98
2018-05-17T07:02:22.402Z,12.40
2018-05-17T07:04:48.864Z,11.60
2018-05-17T07:07:15.593Z,11.90
2018-05-17T07:09:42.755Z,11.02
2018-05-17T07:12:09.053Z,11.70
2018-05-17T07:14:35.430Z,11.02
2018-05-17T07:17:01.745Z,11.43
2018-05-17T07:19:28.118Z,10.63
2018-05-17T07:21:54.623Z,10.52
2018-05-17T07:24:20.955Z,10.88
2018-05-17T07:26:47.289Z,10.40
2018-05-17T07:29:13.670Z,11.63
2018-05-17T07:31:39.958Z,9.18
2018-05-17T07:34:06.409Z,9.57
2018-05-17T07:36:32.806Z,10.93
2018-05-17T07:38:59.150Z,10.75
2018-05-17T07:41:25.521Z,9.25
2018-05-17T07:43:51.906Z,9.75
2018-05-17T07:46:18.740Z,10.52
2018-05-17T07:48:45.042Z,11.20
2018-05-17T07:51:12.119Z,10.80
2018-05-17T07:53:38.433Z,10.52
2018-05-17T07:56:04.786Z,12.48
2018-05-17T07:58:31.114Z,11.57
2018-05-17T08:00:57.463Z,10.65
2018-05-17T08:03:23.849Z,10.27
2018-05-17T08:05:50.218Z,11.48
2018-05-17T08:08:16.583Z,10.85
2018-05-17T08:10:42.992Z,12.55
2018-05-17T08:13:09.326Z,12.65
2018-05-17T08:15:35.709Z,10.25
2018-05-17T08:18:02.160Z,10.90
2018-05-17T08:20:28.480Z,11.40
2018-05-17T08:22:54.878Z,12.88
2018-05-17T08:25:21.264Z,10.48
2018-05-17T08:27:47.683Z,12.13
2018-05-17T08:30:14.067Z,11.32
2018-05-17T08:32:41.131Z,12.77
2018-05-17T08:35:07.548Z,12.32
2018-05-17T08:37:33.898Z,11.93
2018-05-17T08:40:00.343Z,10.88
2018-05-17T08:42:26.712Z,12.25
2018-05-17T08:44:53.272Z,10.40
2018-05-17T08:47:19.703Z,12.15
2018-05-17T08:49:46.901Z,12.40
2018-05-17T08:52:13.270Z,10.93
2018-05-17T08:54:39.687Z,10.70
2018-05-17T08:57:06.187Z,10.65
2018-05-17T08:59:32.759Z,11.05
2018-05-17T09:01:59.226Z,10.20
2018-05-17T09:04:25.769Z,10.50
2018-05-17T09:06:52.103Z,12.13
2018-05-17T09:09:18.476Z,10.63
2018-05-17T09:11:45.678Z,10.18
2018-05-17T09:14:12.863Z,10.13
2018-05-17T09:16:39.298Z,9.27
2018-05-17T09:19:05.717Z,9.73
2018-05-17T09:21:32.177Z,9.63
2018-05-17T09:23:58.591Z,9.20
2018-05-17T09:26:25.339Z,9.15
2018-05-17T09:28:51.805Z,9.10
2018-05-17T09:31:18.917Z,9.55
2018-05-17T09:33:45.250Z,9.27
2018-05-17T09:36:11.731Z,9.07
2018-05-17T09:38:38.836Z,8.35
2018-05-17T09:41:05.234Z,8.30
2018-05-17T09:43:31.739Z,9.02
2018-05-17T09:45:58.978Z,9.15
2018-05-17T09:48:26.165Z,8.93
2018-05-17T09:50:52.582Z,7.68
2018-05-17T09:53:18.962Z,7.70
2018-05-17T09:55:45.339Z,8.05
2018-05-17T09:58:11.731Z,7.43
2018-05-17T10:00:47.995Z,7.12
2018-05-17T10:03:14.633Z,7.62
2018-05-17T10:05:41.050Z,7.18
2018-05-17T10:08:07.432Z,7.60
2018-05-17T10:10:33.842Z,6.60
2018-05-17T10:13:00.594Z,7.47
2018-05-17T10:15:28.435Z,7.18
2018-05-17T10:17:55.059Z,6.70
2018-05-17T10:20:21.919Z,7.70
2018-05-17T10:22:49.121Z,6.75
2018-05-17T10:25:15.637Z,6.47
2018-05-17T10:27:42.237Z,6.72
2018-05-17T10:30:09.663Z,6.53
2018-05-17T10:32:36.222Z,6.80
2018-05-17T10:35:02.686Z,6.18
2018-05-17T10:37:29.090Z,7.03
2018-05-17T10:39:55.453Z,7.20
2018-05-17T10:42:21.910Z,7.90
2018-05-17T10:44:48.340Z,6.72
2018-05-17T10:47:14.714Z,7.30
2018-05-17T10:49:41.141Z,7.55
2018-05-17T10:52:07.645Z,5.80
2018-05-17T10:54:34.107Z,6.43
2018-05-17T10:57:00.523Z,7.53
2018-05-17T10:59:26.964Z,10.03
2018-05-17T11:01:53.452Z,7.18
2018-05-17T11:04:20.012Z,7.70
2018-05-17T11:06:46.559Z,6.90
2018-05-17T11:09:13.071Z,8.87
2018-05-17T11:11:39.449Z,6.93
2018-05-17T11:14:05.949Z,5.60
2018-05-17T11:16:32.320Z,7.20
2018-05-17T11:18:59.535Z,6.67
2018-05-17T11:21:25.870Z,6.50
2018-05-17T11:23:52.254Z,6.65
2018-05-17T11:26:18.602Z,6.30
2018-05-17T11:28:44.995Z,5.67
2018-05-17T11:31:12.102Z,5.60
2018-05-17T11:33:38.561Z,5.77
2018-05-17T11:36:04.976Z,5.70
2018-05-17T11:38:31.312Z,7.30
2018-05-17T11:40:57.724Z,6.17
2018-05-17T11:43:24.110Z,5.60
2018-05-17T11:45:51.241Z,6.37
2018-05-17T11:48:18.365Z,5.55
2018-05-17T11:50:44.770Z,5.20
2018-05-17T11:53:11.168Z,5.77
2018-05-17T11:55:38.555Z,6.33
2018-05-17T11:58:04.937Z,5.43
2018-05-17T12:00:32.070Z,5.60
2018-05-17T12:02:58.503Z,4.73
2018-05-17T12:05:24.868Z,5.17
2018-05-17T12:07:51.388Z,5.87
2018-05-17T12:10:18.506Z,4.83
2018-05-17T12:12:44.954Z,5.33
2018-05-17T12:15:11.321Z,5.17
2018-05-17T12:17:37.771Z,4.90
2018-05-17T12:20:04.199Z,5.17
2018-05-17T12:22:30.629Z,4.73
2018-05-17T12:24:57.025Z,6.60
2018-05-17T12:27:24.215Z,7.03
2018-05-17T12:29:50.761Z,5.60
2018-05-17T12:32:17.240Z,5.47
2018-05-17T12:34:44.599Z,6.33
2018-05-17T12:37:11.752Z,4.80
2018-05-17T12:39:38.200Z,5.63
2018-05-17T12:42:04.625Z,5.50
2018-05-17T12:44:31.058Z,5.93
2018-05-17T12:46:57.699Z,6.53
2018-05-17T12:49:24.172Z,7.03
2018-05-17T12:51:51.337Z,6.50
2018-05-17T12:54:17.870Z,8.33
2018-05-17T12:56:44.399Z,7.57
2018-05-17T12:59:10.791Z,7.37
2018-05-17T13:01:37.230Z,7.87
2018-05-17T13:04:03.633Z,6.23
2018-05-17T13:06:30.212Z,6.20
2018-05-17T13:08:56.590Z,6.33
2018-05-17T13:11:23.763Z,5.83
2018-05-17T13:13:50.158Z,6.43
2018-05-17T13:16:17.460Z,7.10
2018-05-17T13:18:43.943Z,7.07
2018-05-17T13:21:11.102Z,6.10
2018-05-17T13:23:38.295Z,6.17
2018-05-17T13:26:04.682Z,6.50
2018-05-17T13:28:31.892Z,6.73
2018-05-17T13:30:58.365Z,7.60
2018-05-17T13:33:24.800Z,6.90
2018-05-17T13:35:51.480Z,7.37
2018-05-17T13:38:18.042Z,8.57
2018-05-17T13:40:44.500Z,6.80
2018-05-17T13:43:10.897Z,8.20
2018-05-17T13:45:37.477Z,7.50
2018-05-17T13:48:03.895Z,8.10
2018-05-17T13:50:31.121Z,8.37
2018-05-17T13:52:57.861Z,7.37
2018-05-17T13:55:24.412Z,9.30
2018-05-17T13:57:50.774Z,8.50
2018-05-17T14:00:17.437Z,9.93
2018-05-17T14:02:47.279Z,9.07
2018-05-17T14:05:13.762Z,10.63
2018-05-17T14:07:40.269Z,10.80
2018-05-17T14:10:07.739Z,10.50
2018-05-17T14:12:34.924Z,10.47
2018-05-17T14:15:01.409Z,8.60
2018-05-17T14:17:28.579Z,8.83
2018-05-17T14:19:55.121Z,12.87
2018-05-17T14:22:21.534Z,11.33
2018-05-17T14:24:48.887Z,10.77
2018-05-17T14:27:15.270Z,11.80
2018-05-17T14:29:41.650Z,11.90
2018-05-17T14:32:08.883Z,11.30
2018-05-17T14:34:35.218Z,12.43
2018-05-17T14:37:02.386Z,12.60
2018-05-17T14:39:29.026Z,12.40
2018-05-17T14:41:55.542Z,11.57
2018-05-17T14:44:22.068Z,13.80
2018-05-17T14:46:48.619Z,13.53
2018-05-17T14:49:15.031Z,13.63
2018-05-17T14:51:41.476Z,12.67
2018-05-17T14:54:08.484Z,12.83
2018-05-17T14:56:34.856Z,14.63
2018-05-17T14:59:01.289Z,14.87
2018-05-17T15:01:27.677Z,15.20
2018-05-17T15:03:54.265Z,12.67
2018-05-17T15:06:20.711Z,12.13
2018-05-17T15:08:47.263Z,14.60
2018-05-17T15:11:14.967Z,13.80
2018-05-17T15:13:40.158Z,12.93
2018-05-17T15:16:06.593Z,11.80
2018-05-17T15:18:32.958Z,12.60
2018-05-17T15:20:59.457Z,10.87
2018-05-17T15:23:31.127Z,11.30
2018-05-17T15:25:57.579Z,12.40
2018-05-17T15:28:24.029Z,13.83
2018-05-17T15:30:50.591Z,13.90
2018-05-17T15:33:17.079Z,13.70
2018-05-17T15:35:43.463Z,13.40
2018-05-17T15:38:09.843Z,14.00
2018-05-17T15:40:36.257Z,14.53
2018-05-17T15:43:03.520Z,14.27
2018-05-17T15:45:29.971Z,14.30
2018-05-17T15:47:56.412Z,11.13
2018-05-17T15:50:27.463Z,8.10
2018-05-17T15:52:54.252Z,6.67
2018-05-17T15:55:20.820Z,7.70
2018-05-17T15:57:47.244Z,7.10
2018-05-17T16:00:13.826Z,8.00
2018-05-17T16:02:40.841Z,7.03
2018-05-17T16:05:07.244Z,7.80
2018-05-17T16:07:33.723Z,7.70
2018-05-17T16:10:00.170Z,8.20
2018-05-17T16:12:26.705Z,8.23
2018-05-17T16:14:53.130Z,9.90
2018-05-17T16:17:19.505Z,11.20
2018-05-17T16:19:45.883Z,11.40
2018-05-17T16:22:12.395Z,12.30
2018-05-17T16:24:38.783Z,13.50
2018-05-17T16:27:05.955Z,13.57
2018-05-17T16:29:32.448Z,14.10
2018-05-17T16:31:58.876Z,15.93
2018-05-17T16:34:25.345Z,18.20
2018-05-17T16:36:51.783Z,17.17
2018-05-17T16:39:18.285Z,18.20
2018-05-17T16:41:44.663Z,19.00
2018-05-17T16:44:11.043Z,17.97
2018-05-17T16:46:37.416Z,18.93
2018-05-17T16:49:03.983Z,17.60
2018-05-17T16:51:31.112Z,16.90
2018-05-17T16:53:57.546Z,13.80
2018-05-17T16:56:24.698Z,12.53
2018-05-17T16:58:51.191Z,15.23
2018-05-17T17:01:17.533Z,15.97
2018-05-17T17:03:43.924Z,16.07
2018-05-17T17:06:10.376Z,16.63
2018-05-17T17:08:37.601Z,17.87
2018-05-17T17:11:04.109Z,17.10
2018-05-17T17:13:30.656Z,18.03
2018-05-17T17:15:57.104Z,18.90
2018-05-17T17:18:23.565Z,19.20
2018-05-17T17:20:50.810Z,20.60
2018-05-17T17:23:17.249Z,19.90
2018-05-17T17:25:43.715Z,22.03
2018-05-17T17:28:10.159Z,21.60
2018-05-17T17:30:36.549Z,21.33
2018-05-17T17:33:03.829Z,19.43
2018-05-17T17:35:30.219Z,18.33
2018-05-17T17:37:56.985Z,21.17
2018-05-17T17:40:29.508Z,22.60
2018-05-17T17:42:55.967Z,22.73
2018-05-17T17:45:22.440Z,22.47
2018-05-17T17:47:48.939Z,21.60
2018-05-17T17:50:17.723Z,21.40
2018-05-17T17:52:45.255Z,22.33
2018-05-17T17:55:11.761Z,22.00
2018-05-17T17:57:38.337Z,20.00
2018-05-17T18:00:04.806Z,20.60
2018-05-17T18:02:37.799Z,22.77
2018-05-17T18:05:05.373Z,19.93
2018-05-17T18:07:32.313Z,21.63
2018-05-17T18:09:58.785Z,20.30
2018-05-17T18:12:25.965Z,20.97
2018-05-17T18:14:53.266Z,20.00
2018-05-17T18:17:19.788Z,19.47
2018-05-17T18:19:51.509Z,20.00
2018-05-17T18:22:18.465Z,20.60
2018-05-17T18:24:45.538Z,19.90
2018-05-17T18:27:13.127Z,19.07
2018-05-17T18:29:39.857Z,18.30
2018-05-17T18:32:07.102Z,17.70
2018-05-17T18:34:33.715Z,17.73
2018-05-17T18:37:00.166Z,17.67
2018-05-17T18:39:26.789Z,17.03
2018-05-17T18:41:53.134Z,17.53
2018-05-17T18:44:19.603Z,16.80
2018-05-17T18:46:52.077Z,19.83
2018-05-17T18:49:18.750Z,15.97
2018-05-17T18:51:45.491Z,15.47
2018-05-17T18:54:11.905Z,14.70
2018-05-17T18:56:38.639Z,15.50
2018-05-17T18:59:05.120Z,15.17
2018-05-17T19:01:31.602Z,14.30
2018-05-17T19:03:58.275Z,14.00
2018-05-17T19:06:24.671Z,13.00
2018-05-17T19:08:51.265Z,12.33
2018-05-17T19:11:17.688Z,14.63
2018-05-17T19:13:44.106Z,13.27
2018-05-17T19:16:10.590Z,13.20
2018-05-17T19:18:37.801Z,11.37
2018-05-17T19:21:04.232Z,10.47
2018-05-17T19:23:30.662Z,11.15
2018-05-17T19:25:57.094Z,9.40
2018-05-17T19:28:23.814Z,10.97
2018-05-17T19:30:50.334Z,9.43
2018-05-17T19:33:16.799Z,10.23
2018-05-17T19:35:44.010Z,9.57
2018-05-17T19:38:10.583Z,11.38
2018-05-17T19:40:37.018Z,9.80
2018-05-17T19:43:04.316Z,9.82
2018-05-17T19:45:30.811Z,10.90
2018-05-17T19:47:57.335Z,10.95
2018-05-17T19:50:23.826Z,10.80
2018-05-17T19:52:50.920Z,11.05
2018-05-17T19:55:17.373Z,10.80
2018-05-17T19:57:44.292Z,10.20
2018-05-17T20:00:10.723Z,10.88
2018-05-17T20:02:37.129Z,9.73
2018-05-17T20:05:03.738Z,9.80
2018-05-17T20:07:30.074Z,10.55
2018-05-17T20:09:57.431Z,9.52
2018-05-17T20:12:24.008Z,9.85
2018-05-17T20:14:50.433Z,8.68
2018-05-17T20:17:16.885Z,8.52
2018-05-17T20:19:43.365Z,7.87
2018-05-17T20:22:09.843Z,8.07
2018-05-17T20:24:36.331Z,7.90
2018-05-17T20:27:02.766Z,8.05
2018-05-17T20:29:29.275Z,7.85
2018-05-17T20:31:55.670Z,6.95
2018-05-17T20:34:22.218Z,7.47
2018-05-17T20:36:48.627Z,8.02
2018-05-17T20:39:15.172Z,7.10
2018-05-17T20:41:41.553Z,7.80
2018-05-17T20:44:07.955Z,6.80
2018-05-17T20:46:34.346Z,8.90
2018-05-17T20:49:00.779Z,7.07
2018-05-17T20:51:27.127Z,7.80
2018-05-17T20:53:53.630Z,7.15
2018-05-17T20:56:19.983Z,5.82
2018-05-17T20:58:46.364Z,6.32
2018-05-17T21:01:12.705Z,6.70
2018-05-17T21:03:39.821Z,6.60
2018-05-17T21:06:06.291Z,7.07
2018-05-17T21:08:33.367Z,5.80
2018-05-17T21:10:59.846Z,6.95
2018-05-17T21:13:26.699Z,6.35
2018-05-17T21:15:53.878Z,5.85
2018-05-17T21:18:20.273Z,6.97
2018-05-17T21:20:46.662Z,5.65
2018-05-17T21:23:13.313Z,6.80
2018-05-17T21:25:39.696Z,7.00
2018-05-17T21:28:06.128Z,6.68
2018-05-17T21:30:32.552Z,6.68
2018-05-17T21:32:58.938Z,6.68
2018-05-17T21:35:25.286Z,6.00
2018-05-17T21:37:52.617Z,6.50
2018-05-17T21:40:18.998Z,7.00
2018-05-17T21:42:45.340Z,6.95
2018-05-17T21:45:12.472Z,7.03
2018-05-17T21:47:38.902Z,6.20
2018-05-17T21:50:05.958Z,7.05
2018-05-17T21:52:32.350Z,7.35
2018-05-17T21:54:58.710Z,5.78
2018-05-17T21:57:25.819Z,6.70
2018-05-17T21:59:52.191Z,6.12
2018-05-17T22:02:19.465Z,7.15
2018-05-17T22:04:45.879Z,6.12
2018-05-17T22:07:12.271Z,6.70
2018-05-17T22:09:38.690Z,6.60
2018-05-17T22:12:05.010Z,5.95
2018-05-17T22:14:31.787Z,6.45
